Time;durP1;ratioP1;P1;durP2;ratioP2;P2;SDS_P1;SDS_P2;PMS_P1;PMS_P2;Temp;Humidity;BMP_temperature;BMP_pressure;BME280_temperature;BME280_humidity;BME280_pressure;Samples;Min_cycle;Max_cycle;Signal;HPM_P1;HPM_P2
2022/11/15 00:00:30;;;;;;;8.77;4.10;;;7.30;99.90;;;;;;4854747;29;20509;-90
2022/11/15 00:03:18;;;;;;;8.95;5.18;;;7.40;99.90;;;;;;4855594;29;20049;-89
2022/11/15 00:06:05;;;;;;;10.20;4.93;;;7.40;99.90;;;;;;4856427;29;20061;-90
2022/11/15 00:08:49;;;;;;;8.82;4.43;;;7.40;99.90;;;;;;4868135;29;20048;-89
2022/11/15 00:11:33;;;;;;;8.55;4.80;;;7.40;99.90;;;;;;4857135;29;20505;-90
2022/11/15 00:14:17;;;;;;;7.75;4.50;;;7.40;99.90;;;;;;4855332;29;20072;-90
2022/11/15 00:17:01;;;;;;;10.35;5.85;;;7.40;99.90;;;;;;4868022;29;20465;-89
2022/11/15 00:19:45;;;;;;;10.40;5.85;;;7.40;99.90;;;;;;4857438;29;20121;-90
2022/11/15 00:22:33;;;;;;;11.48;5.88;;;7.40;99.90;;;;;;4862884;29;20097;-89
2022/11/15 00:25:17;;;;;;;7.80;4.90;;;7.50;99.90;;;;;;4854511;29;20088;-89
2022/11/15 00:28:01;;;;;;;9.25;5.43;;;7.50;99.90;;;;;;4867195;29;20541;-88
2022/11/15 00:30:45;;;;;;;11.05;6.28;;;7.50;99.90;;;;;;4857441;29;20052;-89
2022/11/15 00:33:30;;;;;;;10.18;6.35;;;7.50;99.90;;;;;;4854225;29;20049;-89
2022/11/15 00:36:15;;;;;;;7.95;4.82;;;7.60;99.90;;;;;;4854890;29;20061;-89
2022/11/15 00:38:59;;;;;;;7.82;5.25;;;7.60;99.90;;;;;;4855186;29;20044;-88
2022/11/15 00:41:43;;;;;;;7.47;4.30;;;7.50;99.90;;;;;;4857674;29;20061;-89
2022/11/15 00:44:27;;;;;;;7.53;4.57;;;7.60;99.90;;;;;;4867379;29;20105;-89
2022/11/15 00:47:11;;;;;;;9.90;5.10;;;7.60;99.90;;;;;;4856954;29;20044;-88
2022/11/15 00:49:55;;;;;;;9.88;5.47;;;7.70;99.90;;;;;;4857019;29;20126;-89
2022/11/15 00:52:39;;;;;;;7.20;4.90;;;7.70;99.90;;;;;;4852926;29;20094;-89
2022/11/15 00:55:23;;;;;;;7.63;3.97;;;7.70;99.90;;;;;;4854724;29;20037;-89
2022/11/15 00:58:07;;;;;;;8.88;5.55;;;7.70;99.90;;;;;;4852654;29;20610;-90
2022/11/15 01:00:51;;;;;;;7.35;4.57;;;7.80;99.90;;;;;;4852415;29;20102;-89
2022/11/15 01:03:36;;;;;;;8.68;4.68;;;7.80;99.90;;;;;;4854933;29;20041;-89
2022/11/15 01:06:20;;;;;;;8.68;5.85;;;7.80;99.90;;;;;;4868106;29;20037;-89
2022/11/15 01:09:04;;;;;;;9.07;5.15;;;7.80;99.90;;;;;;4857342;29;20073;-89
2022/11/15 01:11:49;;;;;;;9.82;5.60;;;7.90;99.90;;;;;;4854459;29;20090;-88
2022/11/15 01:14:33;;;;;;;8.80;5.90;;;7.90;99.90;;;;;;4855623;29;20137;-88
2022/11/15 01:17:17;;;;;;;7.40;5.13;;;7.90;99.90;;;;;;4856275;29;20065;-89
2022/11/15 01:20:01;;;;;;;9.60;4.95;;;8.00;99.90;;;;;;4853976;29;20037;-88
2022/11/15 01:22:46;;;;;;;8.57;5.53;;;8.00;99.90;;;;;;4856234;29;20514;-89
2022/11/15 01:25:30;;;;;;;6.95;5.22;;;8.00;99.90;;;;;;4855745;29;20083;-89
2022/11/15 01:28:14;;;;;;;6.20;4.47;;;8.00;99.90;;;;;;4857028;29;20459;-89
2022/11/15 01:31:04;;;;;;;6.28;4.90;;;8.00;99.90;;;;;;4853974;29;20090;-89
2022/11/15 01:33:48;;;;;;;4.80;3.40;;;8.00;99.90;;;;;;4854898;29;20062;-89
2022/11/15 01:36:32;;;;;;;6.68;4.45;;;8.00;99.90;;;;;;4851682;29;20044;-89
2022/11/15 01:39:16;;;;;;;9.68;5.25;;;8.10;99.90;;;;;;4864543;29;20045;-90
2022/11/15 01:42:01;;;;;;;8.43;4.72;;;8.10;99.90;;;;;;4854459;29;20125;-88
2022/11/15 01:44:54;;;;;;;7.63;5.20;;;8.10;99.90;;;;;;4853402;29;20136;-90
2022/11/15 01:47:43;;;;;;;8.35;5.35;;;8.20;99.90;;;;;;4859217;29;20083;-90
2022/11/15 01:50:32;;;;;;;8.18;4.40;;;8.10;99.90;;;;;;4866631;29;20517;-88
2022/11/15 01:53:17;;;;;;;6.88;4.82;;;8.10;99.90;;;;;;4866550;29;20053;-91
2022/11/15 01:56:13;;;;;;;8.23;5.55;;;8.20;99.90;;;;;;4855386;29;20045;-89
2022/11/15 01:59:02;;;;;;;7.30;4.97;;;8.20;99.90;;;;;;4869637;29;20068;-88
2022/11/15 02:01:47;;;;;;;6.75;3.97;;;8.20;99.90;;;;;;4856507;29;20403;-89
2022/11/15 02:04:37;;;;;;;6.53;5.05;;;8.30;99.90;;;;;;4853815;29;20094;-89
2022/11/15 02:07:22;;;;;;;;;;;8.30;99.90;;;;;;4855135;29;20036;-89
2022/11/15 02:10:19;;;;;;;8.65;5.35;;;8.30;99.90;;;;;;4860091;29;20429;-90
2022/11/15 02:13:03;;;;;;;6.30;4.22;;;8.30;99.90;;;;;;4852103;29;20045;-89
2022/11/15 02:16:00;;;;;;;9.20;5.63;;;8.40;99.90;;;;;;4853721;29;20033;-88
2022/11/15 02:18:53;;;;;;;7.80;5.43;;;8.40;99.90;;;;;;4853596;29;20082;-88
2022/11/15 02:22:12;;;;;;;8.30;5.40;;;8.40;99.90;;;;;;4853650;29;20221;-88
2022/11/15 02:25:27;;;;;;;7.67;4.77;;;8.40;99.90;;;;;;4865202;29;20065;-89
2022/11/15 02:28:49;;;;;;;7.53;5.15;;;8.40;99.90;;;;;;4853362;29;20102;-89
2022/11/15 02:32:02;;;;;;;7.35;4.28;;;8.50;99.90;;;;;;4853533;29;20112;-87
2022/11/15 02:35:05;;;;;;;5.28;4.07;;;8.50;99.90;;;;;;4865543;29;20111;-89
2022/11/15 02:38:04;;;;;;;6.22;3.47;;;8.60;99.90;;;;;;4866121;29;20045;-89
2022/11/15 02:40:56;;;;;;;7.32;4.68;;;8.60;99.90;;;;;;4866011;29;20043;-89
2022/11/15 02:43:56;;;;;;;5.22;4.28;;;8.60;99.90;;;;;;4851179;29;20096;-88
2022/11/15 02:50:10;;;;;;;6.43;4.07;;;8.60;99.90;;;;;;4854205;29;20044;-88
2022/11/15 02:52:54;;;;;;;5.00;3.60;;;8.70;99.90;;;;;;4853763;29;20081;-89
2022/11/15 02:55:46;;;;;;;5.65;3.85;;;8.70;99.90;;;;;;4852527;29;20048;-89
2022/11/15 02:58:54;;;;;;;5.55;3.53;;;8.80;99.90;;;;;;4854140;29;20058;-88
2022/11/15 03:01:57;;;;;;;5.88;4.35;;;8.80;99.90;;;;;;4851441;29;20597;-89
2022/11/15 03:04:44;;;;;;;6.78;4.28;;;8.90;99.90;;;;;;4854183;29;20053;-90
2022/11/15 03:07:55;;;;;;;5.55;4.38;;;8.90;99.90;;;;;;4851565;29;20097;-89
2022/11/15 03:10:51;;;;;;;5.28;4.18;;;8.90;99.90;;;;;;4852401;29;20040;-89
2022/11/15 03:14:01;;;;;;;5.53;4.43;;;9.00;99.90;;;;;;4853611;29;20049;-89
2022/11/15 03:17:16;;;;;;;6.85;4.55;;;9.00;99.90;;;;;;4866397;29;20128;-88
2022/11/15 03:20:06;;;;;;;7.15;4.18;;;9.00;99.90;;;;;;4851755;29;20333;-90
2022/11/15 03:22:51;;;;;;;5.50;3.65;;;9.10;99.90;;;;;;4864922;29;20068;-88
2022/11/15 03:25:41;;;;;;;6.47;4.22;;;9.00;99.90;;;;;;4850475;29;20052;-89
2022/11/15 03:28:33;;;;;;;5.28;3.95;;;9.10;99.90;;;;;;4850988;29;20384;-89
2022/11/15 03:34:26;;;;;;;6.03;4.03;;;9.10;99.90;;;;;;4852434;29;20041;-88
2022/11/15 03:37:14;;;;;;;7.45;4.43;;;9.10;99.90;;;;;;4867083;29;20044;-88
2022/11/15 03:39:59;;;;;;;7.13;4.32;;;9.20;99.90;;;;;;4865056;29;20402;-89
2022/11/15 03:43:06;;;;;;;7.55;5.13;;;9.20;99.90;;;;;;4852102;29;20052;-88
2022/11/15 03:46:14;;;;;;;6.07;4.43;;;9.30;99.90;;;;;;4859341;29;20060;-87
2022/11/15 03:49:29;;;;;;;8.75;4.63;;;9.30;99.90;;;;;;4856350;29;20040;-89
2022/11/15 03:52:18;;;;;;;8.02;5.30;;;9.30;99.90;;;;;;4864441;29;20056;-89
2022/11/15 03:55:05;;;;;;;6.60;4.15;;;9.40;99.90;;;;;;4854970;29;20037;-88
2022/11/15 03:57:55;;;;;;;7.20;5.28;;;9.40;99.90;;;;;;4865808;29;20060;-89
2022/11/15 04:00:40;;;;;;;6.47;4.72;;;9.40;99.90;;;;;;4864794;29;20486;-89
2022/11/15 04:03:24;;;;;;;6.55;4.63;;;9.40;99.90;;;;;;4854595;29;20101;-88
2022/11/15 04:06:08;;;;;;;7.75;5.07;;;9.50;99.90;;;;;;4852407;29;20104;-89
2022/11/15 04:08:52;;;;;;;6.90;4.97;;;9.50;99.90;;;;;;4856962;29;20129;-89
2022/11/15 04:11:36;;;;;;;7.88;4.88;;;9.50;99.90;;;;;;4857311;29;20028;-89
2022/11/15 04:14:20;;;;;;;7.00;5.15;;;9.50;99.90;;;;;;4858835;29;20056;-89
2022/11/15 04:17:04;;;;;;;7.60;4.85;;;9.50;99.90;;;;;;4865486;29;20497;-89
2022/11/15 04:26:02;;;;;;;6.45;4.45;;;9.60;99.90;;;;;;4859274;29;20092;-89
2022/11/15 04:31:50;;;;;;;6.28;4.72;;;9.70;99.90;;;;;;4855899;29;20281;-88
2022/11/15 04:34:35;;;;;;;4.95;3.45;;;9.70;99.90;;;;;;4862123;29;20156;-88
2022/11/15 04:37:19;;;;;;;5.82;3.55;;;9.70;99.90;;;;;;4854398;29;20125;-89
2022/11/15 04:40:03;;;;;;;8.18;4.53;;;9.80;99.90;;;;;;4857061;29;20044;-89
2022/11/15 04:42:47;;;;;;;5.38;4.00;;;9.80;99.90;;;;;;4857269;29;20115;-89
2022/11/15 04:45:32;;;;;;;5.43;3.80;;;9.90;99.90;;;;;;4855806;29;20544;-88
2022/11/15 04:48:16;;;;;;;6.65;3.20;;;9.80;99.90;;;;;;4853939;29;20037;-89
2022/11/15 04:51:00;;;;;;;4.38;3.20;;;9.90;99.90;;;;;;4854070;29;20040;-88
2022/11/15 04:53:43;;;;;;;5.10;3.55;;;9.80;99.90;;;;;;4863094;29;20068;-88
2022/11/15 04:56:28;;;;;;;6.00;4.38;;;9.90;99.90;;;;;;4855844;29;20125;-86
2022/11/15 04:59:12;;;;;;;6.25;4.63;;;9.90;99.90;;;;;;4864457;29;20045;-88
2022/11/15 05:01:56;;;;;;;4.82;3.90;;;9.90;99.90;;;;;;4855484;29;20125;-88
2022/11/15 05:04:40;;;;;;;5.25;4.43;;;9.90;99.90;;;;;;4861787;29;20048;-88
2022/11/15 05:07:24;;;;;;;7.80;4.93;;;9.90;99.90;;;;;;4857833;29;20040;-89
2022/11/15 05:10:09;;;;;;;5.95;4.30;;;10.00;99.90;;;;;;4852567;29;20513;-88
2022/11/15 05:12:53;;;;;;;5.15;3.97;;;10.00;99.90;;;;;;4866408;29;20136;-87
2022/11/15 05:15:37;;;;;;;6.20;4.18;;;10.00;99.90;;;;;;4857109;29;20394;-88
2022/11/15 05:18:21;;;;;;;6.88;4.05;;;10.00;99.90;;;;;;4854333;29;20037;-88
2022/11/15 05:21:07;;;;;;;7.72;4.05;;;10.00;99.90;;;;;;4855146;29;20094;-88
2022/11/15 05:23:52;;;;;;;5.20;3.17;;;10.00;99.90;;;;;;4868362;29;20401;-88
2022/11/15 05:26:36;;;;;;;5.38;3.90;;;10.10;99.90;;;;;;4858047;29;20580;-88
2022/11/15 05:29:20;;;;;;;7.90;3.72;;;10.10;99.90;;;;;;4857402;29;20096;-88
2022/11/15 05:32:06;;;;;;;5.25;3.38;;;10.20;99.90;;;;;;4853366;29;20036;-88
2022/11/15 05:34:51;;;;;;;7.10;4.43;;;10.10;99.90;;;;;;4867008;29;20109;-88
2022/11/15 05:37:35;;;;;;;5.65;3.97;;;10.20;99.90;;;;;;4855814;29;20039;-88
2022/11/15 05:40:20;;;;;;;5.97;4.13;;;10.20;99.90;;;;;;4852762;29;20036;-89
2022/11/15 05:43:05;;;;;;;6.80;5.15;;;10.20;99.90;;;;;;4854800;29;20129;-89
2022/11/15 05:45:49;;;;;;;7.28;4.88;;;10.20;99.90;;;;;;4868286;29;20518;-89
2022/11/15 05:48:35;;;;;;;7.25;5.05;;;10.20;99.90;;;;;;4861386;29;20087;-88
2022/11/15 05:51:22;;;;;;;5.00;3.70;;;10.20;99.90;;;;;;4857064;29;20078;-88
2022/11/15 05:54:06;;;;;;;6.55;3.42;;;10.30;99.90;;;;;;4854264;29;20054;-89
2022/11/15 05:56:51;;;;;;;4.43;3.40;;;10.30;99.90;;;;;;4853991;29;20048;-88
2022/11/15 05:59:36;;;;;;;5.03;4.07;;;10.30;99.90;;;;;;4865552;29;20041;-88
2022/11/15 06:02:20;;;;;;;7.05;4.78;;;10.30;99.90;;;;;;4855639;29;20333;-88
2022/11/15 06:05:04;;;;;;;5.97;4.43;;;10.30;99.90;;;;;;4854232;29;20164;-89
2022/11/15 06:07:48;;;;;;;6.97;4.72;;;10.30;99.90;;;;;;4853408;29;20128;-89
2022/11/15 06:10:33;;;;;;;5.95;4.05;;;10.30;99.90;;;;;;4866486;29;20040;-90
2022/11/15 06:13:17;;;;;;;8.20;4.47;;;10.30;99.90;;;;;;4867580;29;20044;-88
2022/11/15 06:16:01;;;;;;;7.20;4.47;;;10.30;99.90;;;;;;4856564;29;20089;-88
2022/11/15 06:18:46;;;;;;;5.30;4.47;;;10.30;99.90;;;;;;4853044;29;20414;-88
2022/11/15 06:21:30;;;;;;;4.78;4.00;;;10.30;99.90;;;;;;4854162;29;20074;-89
2022/11/15 06:24:14;;;;;;;5.05;3.45;;;10.30;99.90;;;;;;4854979;29;20153;-91
2022/11/15 06:26:58;;;;;;;5.28;3.90;;;10.30;99.90;;;;;;4857044;29;20394;-90
2022/11/15 06:29:43;;;;;;;5.28;3.15;;;10.30;99.90;;;;;;4852170;29;20069;-89
2022/11/15 06:32:30;;;;;;;4.35;3.17;;;10.30;99.90;;;;;;4855025;29;20433;-89
2022/11/15 06:35:15;;;;;;;5.55;3.83;;;10.30;99.90;;;;;;4861812;29;20041;-89
2022/11/15 06:38:07;;;;;;;4.00;2.92;;;10.40;99.90;;;;;;4855625;29;20040;-89
2022/11/15 06:40:52;;;;;;;6.07;3.25;;;10.40;99.90;;;;;;4834877;29;20478;-84
2022/11/15 06:43:37;;;;;;;5.38;3.38;;;10.30;99.90;;;;;;4850309;29;20109;-81
2022/11/15 06:46:21;;;;;;;3.03;2.05;;;10.30;99.90;;;;;;4830306;29;20498;-82
2022/11/15 06:49:05;;;;;;;5.18;2.72;;;10.30;99.90;;;;;;4840443;29;20537;-82
2022/11/15 06:51:49;;;;;;;3.80;2.45;;;10.40;99.90;;;;;;4850601;29;20490;-84
2022/11/15 06:54:34;;;;;;;3.90;3.20;;;10.40;99.90;;;;;;4860483;29;20114;-83
2022/11/15 06:57:18;;;;;;;3.70;2.78;;;10.40;99.90;;;;;;4847815;29;20403;-81
2022/11/15 07:00:06;;;;;;;5.07;3.33;;;10.40;99.90;;;;;;4849609;29;20049;-84
2022/11/15 07:02:52;;;;;;;3.45;2.70;;;10.40;99.90;;;;;;4847654;29;20083;-88
2022/11/15 07:05:36;;;;;;;3.85;2.75;;;10.40;99.90;;;;;;4853530;29;20056;-84
2022/11/15 07:08:22;;;;;;;3.30;2.63;;;10.40;99.90;;;;;;4844449;29;20076;-84
2022/11/15 07:11:08;;;;;;;4.03;3.15;;;10.30;99.90;;;;;;4824584;29;20140;-90
2022/11/15 07:13:53;;;;;;;4.55;3.28;;;10.30;99.90;;;;;;4851479;29;20041;-83
2022/11/15 07:16:38;;;;;;;4.47;3.15;;;10.40;99.90;;;;;;4858791;29;20069;-83
2022/11/15 07:19:22;;;;;;;4.05;2.90;;;10.40;99.90;;;;;;4853633;29;20300;-83
2022/11/15 07:22:06;;;;;;;4.55;3.00;;;10.50;99.90;;;;;;4851797;29;20063;-89
2022/11/15 07:24:50;;;;;;;3.83;3.33;;;10.40;99.90;;;;;;4855525;29;20089;-89
2022/11/15 07:27:34;;;;;;;4.10;3.38;;;10.50;99.90;;;;;;4847329;29;20088;-90
2022/11/15 07:30:20;;;;;;;5.63;4.47;;;10.50;99.90;;;;;;4840558;29;20410;-83
2022/11/15 07:33:04;;;;;;;5.13;4.18;;;10.50;99.90;;;;;;4851807;29;20447;-87
2022/11/15 07:35:49;;;;;;;5.22;3.72;;;10.50;99.90;;;;;;4827798;29;20075;-82
2022/11/15 07:38:35;;;;;;;4.20;3.45;;;10.50;99.90;;;;;;4864121;29;20396;-89
2022/11/15 07:41:19;;;;;;;5.47;4.45;;;10.50;99.90;;;;;;4824448;29;20059;-88
2022/11/15 07:44:03;;;;;;;4.35;3.15;;;10.50;99.90;;;;;;4850978;29;20208;-83
2022/11/15 07:46:48;;;;;;;4.40;3.33;;;10.50;99.90;;;;;;4854702;29;20175;-86
2022/11/15 07:49:33;;;;;;;4.20;3.58;;;10.50;99.90;;;;;;4851873;29;20502;-83
2022/11/15 07:52:17;;;;;;;5.05;3.15;;;10.50;99.90;;;;;;4769383;29;20093;-81
2022/11/15 07:55:02;;;;;;;4.97;3.72;;;10.60;99.90;;;;;;4790157;29;20755;-81
2022/11/15 07:57:46;;;;;;;4.20;3.67;;;10.60;99.90;;;;;;4795610;29;20419;-82
2022/11/15 08:00:31;;;;;;;5.05;3.75;;;10.60;99.90;;;;;;4806338;29;20096;-82
2022/11/15 08:03:16;;;;;;;3.97;3.28;;;10.60;99.90;;;;;;4810431;29;20181;-84
2022/11/15 08:06:01;;;;;;;4.28;3.55;;;10.60;99.90;;;;;;4792842;29;20083;-82
2022/11/15 08:08:51;;;;;;;4.07;2.90;;;10.60;99.90;;;;;;4808301;29;20497;-82
2022/11/15 08:11:36;;;;;;;3.25;2.63;;;10.60;99.90;;;;;;4805536;29;20052;-81
2022/11/15 08:14:21;;;;;;;3.20;2.55;;;10.70;99.90;;;;;;4811074;29;20060;-82
2022/11/15 08:17:06;;;;;;;4.07;2.78;;;10.70;99.90;;;;;;4802832;29;20207;-85
2022/11/15 08:19:50;;;;;;;3.40;2.97;;;10.60;99.90;;;;;;4796597;29;20045;-87
2022/11/15 08:22:35;;;;;;;3.53;2.22;;;10.60;99.90;;;;;;4800030;29;20042;-82
2022/11/15 08:25:19;;;;;;;3.28;2.22;;;10.60;99.90;;;;;;4799356;29;20527;-81
2022/11/15 08:28:05;;;;;;;3.50;2.00;;;10.60;99.90;;;;;;4798907;29;20044;-84
2022/11/15 08:30:50;;;;;;;3.42;2.42;;;10.60;99.90;;;;;;4791356;29;20512;-80
2022/11/15 08:33:35;;;;;;;3.45;2.53;;;10.70;99.90;;;;;;4799383;29;20121;-82
2022/11/15 08:36:20;;;;;;;3.13;1.25;;;10.70;99.90;;;;;;4787644;29;20430;-86
2022/11/15 08:39:05;;;;;;;1.98;1.27;;;10.70;99.90;;;;;;4806369;29;20048;-82
2022/11/15 08:41:49;;;;;;;2.75;1.33;;;10.70;99.90;;;;;;4782634;29;20068;-81
2022/11/15 08:44:33;;;;;;;3.10;0.98;;;10.70;99.90;;;;;;4793374;29;21301;-80
2022/11/15 08:47:17;;;;;;;2.38;0.95;;;10.70;99.90;;;;;;4795236;29;20181;-83
2022/11/15 08:50:01;;;;;;;1.92;0.88;;;10.80;99.90;;;;;;4794546;29;20048;-84
2022/11/15 08:52:47;;;;;;;2.00;0.70;;;10.80;99.90;;;;;;4806905;29;20724;-82
2022/11/15 08:55:32;;;;;;;4.88;1.20;;;10.90;99.90;;;;;;4790057;29;20043;-82
2022/11/15 08:58:16;;;;;;;1.90;0.82;;;11.00;99.90;;;;;;4793437;29;20117;-84
2022/11/15 09:01:00;;;;;;;2.47;0.80;;;11.10;99.90;;;;;;4789109;29;20181;-83
2022/11/15 09:03:44;;;;;;;4.00;1.20;;;11.10;99.90;;;;;;4798338;29;20079;-86
2022/11/15 09:06:28;;;;;;;2.00;0.60;;;11.10;99.90;;;;;;4800671;29;20047;-83
2022/11/15 09:09:12;;;;;;;2.25;0.90;;;11.10;99.90;;;;;;4794632;29;20430;-82
2022/11/15 09:11:56;;;;;;;2.58;0.70;;;11.10;99.90;;;;;;4786895;29;20049;-81
2022/11/15 09:14:41;;;;;;;3.05;1.02;;;11.10;99.90;;;;;;4794072;29;20044;-83
2022/11/15 09:17:25;;;;;;;3.47;0.90;;;11.00;99.90;;;;;;4802893;29;20109;-83
2022/11/15 09:20:09;;;;;;;4.03;1.00;;;11.00;99.90;;;;;;4791860;29;20049;-84
2022/11/15 09:22:55;;;;;;;2.97;1.38;;;11.00;99.90;;;;;;4793732;29;20584;-84
2022/11/15 09:25:39;;;;;;;2.25;0.80;;;11.00;99.90;;;;;;4796771;29;20151;-82
2022/11/15 09:28:23;;;;;;;4.22;2.10;;;11.00;99.90;;;;;;4807996;29;20072;-83
2022/11/15 09:31:08;;;;;;;3.10;1.48;;;11.10;99.90;;;;;;4794998;29;20117;-84
2022/11/15 09:33:52;;;;;;;3.28;1.25;;;11.20;99.90;;;;;;4794669;29;20296;-81
2022/11/15 09:36:36;;;;;;;3.83;1.30;;;11.20;99.90;;;;;;4782212;29;21268;-85
2022/11/15 09:39:21;;;;;;;2.28;1.30;;;11.20;99.90;;;;;;4794899;29;21027;-83
2022/11/15 09:42:32;;;;;;;2.17;1.15;;;11.20;99.90;;;;;;4767126;29;20188;-83
2022/11/15 09:45:24;;;;;;;2.35;1.17;;;11.20;99.90;;;;;;4797388;29;20060;-82
2022/11/15 09:48:40;;;;;;;3.55;1.08;;;11.20;99.90;;;;;;4805416;29;21464;-82
2022/11/15 09:51:33;;;;;;;3.05;1.20;;;11.30;99.90;;;;;;4786624;29;20153;-84
2022/11/15 09:54:08;;;;;;;1.60;0.80;;;11.30;99.90;;;;;;4792220;29;20061;-81
2022/11/15 09:56:37;;;;;;;2.05;0.85;;;11.30;99.90;;;;;;4792156;29;20032;-82
2022/11/15 09:59:22;;;;;;;2.63;0.90;;;11.30;99.90;;;;;;4786704;29;20471;-84
2022/11/15 10:02:04;;;;;;;2.47;1.08;;;11.30;99.90;;;;;;4810307;29;20046;-83
2022/11/15 10:04:30;;;;;;;2.25;1.35;;;11.40;99.90;;;;;;4809950;29;20491;-83
2022/11/15 10:07:14;;;;;;;3.40;1.63;;;11.40;99.90;;;;;;4791142;29;20061;-90
2022/11/15 10:10:04;;;;;;;2.70;1.45;;;11.50;99.90;;;;;;4796150;29;20037;-82
2022/11/15 10:12:31;;;;;;;1.60;0.60;;;11.70;99.90;;;;;;4801843;29;20064;-82
2022/11/15 10:15:12;;;;;;;3.03;1.00;;;11.90;99.90;;;;;;4794459;29;20050;-84
2022/11/15 10:17:45;;;;;;;2.10;0.85;;;12.00;99.90;;;;;;4803935;29;20050;-84
2022/11/15 10:20:28;;;;;;;1.75;0.73;;;12.00;99.90;;;;;;4800549;29;20045;-83
2022/11/15 10:22:59;;;;;;;1.90;0.63;;;12.20;99.90;;;;;;4809680;29;20340;-85
2022/11/15 10:25:30;;;;;;;2.45;0.80;;;12.10;99.90;;;;;;4808850;29;20946;-85
2022/11/15 10:28:10;;;;;;;2.75;0.70;;;12.10;99.90;;;;;;4796210;29;20045;-85
2022/11/15 10:30:41;;;;;;;2.08;0.70;;;12.10;99.90;;;;;;4791227;29;20121;-87
2022/11/15 10:33:35;;;;;;;1.35;0.50;;;12.00;99.90;;;;;;4788426;29;21050;-83
2022/11/15 10:36:24;;;;;;;1.13;0.50;;;11.90;99.90;;;;;;4792588;29;20086;-82
2022/11/15 10:38:50;;;;;;;1.55;0.47;;;11.80;99.90;;;;;;4806646;29;20808;-84
2022/11/15 10:41:29;;;;;;;1.85;1.00;;;11.90;99.90;;;;;;4783879;29;20129;-84
2022/11/15 10:44:19;;;;;;;3.10;0.77;;;11.90;99.90;;;;;;4808119;29;20057;-86
2022/11/15 10:46:48;;;;;;;2.05;0.60;;;12.00;99.90;;;;;;4793161;29;20999;-83
2022/11/15 10:49:18;;;;;;;3.45;0.57;;;12.00;99.90;;;;;;4809167;29;20083;-84
2022/11/15 10:52:02;;;;;;;1.30;0.40;;;12.10;99.90;;;;;;4787644;29;20041;-85
2022/11/15 10:54:35;;;;;;;0.77;0.38;;;12.40;99.90;;;;;;4797031;29;20566;-84
2022/11/15 10:57:07;;;;;;;1.92;0.30;;;12.50;99.90;;;;;;4799403;29;20101;-82
2022/11/15 10:59:36;;;;;;;0.80;0.30;;;12.50;99.90;;;;;;4810105;29;20521;-84
2022/11/15 11:02:02;;;;;;;1.10;0.30;;;12.50;99.90;;;;;;4783161;29;20033;-82
2022/11/15 11:04:27;;;;;;;0.60;0.20;;;12.50;99.90;;;;;;4809664;29;20178;-83
2022/11/15 11:06:54;;;;;;;0.77;0.30;;;12.50;99.90;;;;;;4785032;29;20033;-84
2022/11/15 11:09:32;;;;;;;0.90;0.30;;;12.50;99.90;;;;;;4802759;29;20132;-85
2022/11/15 11:11:59;;;;;;;3.25;0.30;;;12.40;99.90;;;;;;4796995;29;20175;-81
2022/11/15 11:14:31;;;;;;;1.30;0.40;;;12.40;99.90;;;;;;4800317;29;20491;-82
2022/11/15 11:17:06;;;;;;;1.45;0.30;;;12.50;99.90;;;;;;4782426;29;20454;-83
2022/11/15 11:20:09;;;;;;;0.30;0.13;;;12.40;99.90;;;;;;4812298;29;20646;-83
2022/11/15 11:23:02;;;;;;;1.25;0.30;;;12.40;99.90;;;;;;4792203;29;20588;-85
2022/11/15 11:25:44;;;;;;;0.60;0.20;;;12.20;99.90;;;;;;4803234;29;20037;-84
2022/11/15 11:28:21;;;;;;;0.43;0.13;;;12.30;99.90;;;;;;4797641;29;20562;-90
2022/11/15 11:31:12;;;;;;;0.68;0.10;;;12.40;99.90;;;;;;4797513;29;20045;-84
2022/11/15 11:33:42;;;;;;;1.45;0.20;;;12.50;99.90;;;;;;4806068;29;20029;-85
2022/11/15 11:36:29;;;;;;;1.10;0.15;;;12.50;99.90;;;;;;4798356;29;20040;-85
2022/11/15 11:39:14;;;;;;;1.08;0.10;;;12.50;99.90;;;;;;4808102;29;20037;-85
2022/11/15 11:42:09;;;;;;;1.48;0.35;;;12.60;99.90;;;;;;4766047;29;20124;-86
2022/11/15 11:44:56;;;;;;;1.25;0.20;;;12.50;99.90;;;;;;4801118;29;20597;-84
2022/11/15 11:47:33;;;;;;;0.95;0.10;;;12.60;99.90;;;;;;4801263;29;20068;-85
2022/11/15 11:50:27;;;;;;;1.73;0.20;;;12.60;99.90;;;;;;4795208;29;20149;-88
2022/11/15 11:53:05;;;;;;;1.42;0.15;;;12.40;99.90;;;;;;4787034;29;20526;-86
2022/11/15 11:55:42;;;;;;;1.60;0.20;;;12.50;99.90;;;;;;4809178;29;20257;-83
2022/11/15 11:58:18;;;;;;;1.23;0.10;;;12.60;99.90;;;;;;4790055;29;20044;-84
2022/11/15 12:00:52;;;;;;;0.40;0.10;;;12.60;99.90;;;;;;4809027;29;20183;-83
2022/11/15 12:03:42;;;;;;;1.05;0.10;;;12.60;99.90;;;;;;4805745;29;20046;-86
2022/11/15 12:06:11;;;;;;;0.45;0.10;;;12.50;99.90;;;;;;4793719;29;20530;-82
2022/11/15 12:08:55;;;;;;;1.48;0.20;;;12.60;99.90;;;;;;4812280;29;20041;-83
2022/11/15 12:11:38;;;;;;;1.45;0.10;;;12.60;99.90;;;;;;4790024;29;20461;-83
2022/11/15 12:14:12;;;;;;;1.60;0.10;;;12.60;99.90;;;;;;4812560;29;20037;-82
2022/11/15 12:16:40;;;;;;;0.95;0.10;;;12.50;99.90;;;;;;4805811;29;20628;-85
2022/11/15 12:19:08;;;;;;;0.35;0.10;;;12.60;99.90;;;;;;4810200;29;20065;-86
2022/11/15 12:22:03;;;;;;;0.65;0.10;;;12.60;99.90;;;;;;4788344;29;20117;-83
2022/11/15 12:24:45;;;;;;;1.30;0.20;;;12.60;99.90;;;;;;4798452;29;20090;-83
2022/11/15 12:27:42;;;;;;;0.95;0.10;;;12.60;99.90;;;;;;4800635;29;20041;-83
2022/11/15 12:30:22;;;;;;;0.50;0.00;;;12.50;99.90;;;;;;4802801;29;20046;-82
2022/11/15 12:32:56;;;;;;;0.32;0.00;;;12.60;99.90;;;;;;4777105;29;20160;-83
2022/11/15 12:35:25;;;;;;;0.85;0.10;;;12.60;99.90;;;;;;4798750;29;20042;-88
2022/11/15 12:37:54;;;;;;;0.30;0.10;;;12.60;99.90;;;;;;4805870;29;20113;-83
2022/11/15 12:41:13;;;;;;;1.50;0.10;;;12.70;99.90;;;;;;4813688;29;21547;-85
2022/11/15 12:43:42;;;;;;;2.05;0.10;;;12.70;99.90;;;;;;4726724;29;20423;-82
2022/11/15 12:46:22;;;;;;;0.98;0.00;;;12.70;99.90;;;;;;4727044;29;20726;-85
2022/11/15 12:48:54;;;;;;;0.77;0.10;;;12.60;99.90;;;;;;4729067;29;20085;-83
2022/11/15 12:51:43;;;;;;;0.60;0.08;;;12.60;99.90;;;;;;4725252;29;21157;-86
2022/11/15 12:54:24;;;;;;;0.73;0.10;;;12.60;99.90;;;;;;4706812;30;21661;-90
2022/11/15 12:57:08;;;;;;;0.35;0.10;;;12.70;99.90;;;;;;4721801;29;20039;-84
2022/11/15 12:59:54;;;;;;;1.38;0.08;;;12.70;99.90;;;;;;4727524;29;20051;-88
2022/11/15 13:02:27;;;;;;;0.35;0.03;;;12.70;99.90;;;;;;4719984;29;20039;-83
2022/11/15 13:05:19;;;;;;;0.45;0.05;;;12.70;99.90;;;;;;4729817;29;20444;-84
2022/11/15 13:07:45;;;;;;;0.73;0.10;;;12.70;99.90;;;;;;4686995;29;20074;-85
2022/11/15 13:10:26;;;;;;;0.55;0.00;;;12.70;99.90;;;;;;4716481;29;20571;-84
2022/11/15 13:13:03;;;;;;;0.57;0.10;;;12.70;99.90;;;;;;4714874;29;20509;-82
2022/11/15 13:15:46;;;;;;;1.02;0.10;;;12.60;99.90;;;;;;4727295;29;20492;-83
2022/11/15 13:18:39;;;;;;;1.25;0.10;;;12.60;99.90;;;;;;4737398;29;20525;-83
2022/11/15 13:24:04;;;;;;;0.32;0.03;;;12.70;99.90;;;;;;4815631;29;21466;-85
2022/11/15 13:26:31;;;;;;;0.70;0.10;;;12.60;99.90;;;;;;4805549;29;20567;-83
2022/11/15 13:29:00;;;;;;;0.65;0.10;;;12.60;99.90;;;;;;4811668;29;20041;-84
2022/11/15 13:31:37;;;;;;;0.40;0.10;;;12.50;99.90;;;;;;4803329;29;20045;-86
2022/11/15 13:34:15;;;;;;;0.63;0.10;;;12.50;99.90;;;;;;4780500;29;20034;-82
2022/11/15 13:36:41;;;;;;;0.75;0.00;;;12.50;99.90;;;;;;4790065;29;20121;-81
2022/11/15 13:39:30;;;;;;;1.30;0.10;;;12.50;99.90;;;;;;4799547;29;20582;-85
2022/11/15 13:41:56;;;;;;;0.55;0.10;;;12.50;99.90;;;;;;4781823;29;20057;-87
2022/11/15 13:44:31;;;;;;;0.40;0.10;;;12.40;99.90;;;;;;4805516;29;20037;-84
2022/11/15 13:47:19;;;;;;;2.15;0.17;;;12.40;99.90;;;;;;4800424;29;20062;-81
2022/11/15 13:49:46;;;;;;;0.63;0.10;;;12.40;99.90;;;;;;4799702;29;20037;-83
2022/11/15 13:52:16;;;;;;;1.17;0.17;;;12.40;99.90;;;;;;4781960;29;20052;-85
2022/11/15 13:54:52;;;;;;;0.38;0.03;;;12.40;99.90;;;;;;4796467;29;21185;-86
2022/11/15 13:57:29;;;;;;;0.60;0.00;;;12.40;99.90;;;;;;4817449;29;20493;-86
2022/11/15 14:00:00;;;;;;;1.15;0.10;;;12.30;99.90;;;;;;4793643;29;20675;-82
2022/11/15 14:02:32;;;;;;;0.70;0.10;;;12.30;99.90;;;;;;4787628;29;20069;-83
2022/11/15 14:05:18;;;;;;;0.95;0.10;;;12.30;99.90;;;;;;4792785;29;20345;-86
2022/11/15 14:08:20;;;;;;;0.60;0.00;;;12.30;99.90;;;;;;4801009;29;20030;-83
2022/11/15 14:10:46;;;;;;;1.45;0.25;;;12.20;99.90;;;;;;4818107;29;20048;-83
2022/11/15 14:13:28;;;;;;;0.70;0.10;;;12.20;99.90;;;;;;4801339;29;20059;-86
2022/11/15 14:15:55;;;;;;;0.95;0.00;;;12.20;99.90;;;;;;4798185;29;20153;-82
2022/11/15 14:18:42;;;;;;;0.43;0.10;;;12.20;99.90;;;;;;4774058;29;20521;-84
2022/11/15 14:21:08;;;;;;;3.58;0.10;;;12.10;99.90;;;;;;4806637;29;20042;-84
2022/11/15 14:23:34;;;;;;;1.00;0.10;;;12.10;99.90;;;;;;4803109;29;20572;-82
2022/11/15 14:26:00;;;;;;;0.38;0.30;;;12.00;99.90;;;;;;4805822;29;20045;-87
2022/11/15 14:28:26;;;;;;;0.68;0.00;;;12.00;99.90;;;;;;4807848;29;20499;-84
2022/11/15 14:30:55;;;;;;;2.40;0.10;;;11.90;99.90;;;;;;4800572;29;20573;-84
2022/11/15 14:33:35;;;;;;;0.10;0.05;;;11.90;99.90;;;;;;4804577;29;20048;-82
2022/11/15 14:36:20;;;;;;;0.40;0.10;;;11.80;99.90;;;;;;4817518;29;20097;-84